Accueil
METAR-TAF:

METAR-TAF

Aéroports :

Paris-Charles De Gaulle, France

Aéroport de Paris-Charles-de-Gaulle

latitude: 49-01N, longitude: 002-32E, altitude: 118 m

Observation

Le bulletin a été fait il y a 20 minutes, à 00:30 UTC
Vent 5 kt de ouest/sud-ouest
Température 11°C
Humidité 71%
Pression 1020 hPa
Visibilité 10 km ou plus
Nuages épars à une hauteur de 3500 ft

METAR: LFPG 240030Z 24005KT 9999 SCT035 11/06 Q1020 NOSIG

Heure: 02:50 (00:50 UTC)

Prévision

Le bulletin a été fait il y a 1 heure et 50 minutes, à 23:00 UTC
Prévision valable du 24 à 00 UTC au 25 à 06 UTC
Vent 3 kt de ouest/nord-ouest
Visibilité 10 km ou plus
Quelques nuages à une hauteur de 3500 ft

TAF: LFPG 232300Z 2400/2506 30003KT 9999 FEW035 TX21/2415Z TN08/2405Z

Observations et prévisions météorologiques de plus de 4000 aéroports (messages METAR et TAF).

Les stations disponibles sont représentées par des disques jaunes et rouges sur la carte.

Passer la souris dessus pour voir le nom de la station.

Cliquer dessus pour voir les observations et prévisions météorologiques.

Pour changer de carte: cliquez sur les boutons verts avec une croix noire pour zoomer, sur le bouton vert avec un tiret pour effectuer un zoom arrière, ou sur les flèches vertes pour les cartes adjacentes.


METAR-TAF: